Time;durP1;ratioP1;P1;durP2;ratioP2;P2;SDS_P1;SDS_P2;PMS_P1;PMS_P2;Temp;Humidity;BMP_temperature;BMP_pressure;BME280_temperature;BME280_humidity;BME280_pressure;Samples;Min_cycle;Max_cycle;Signal;HPM_P1;HPM_P2
2022/12/17 13:08:21;;;;;;;54.43;19.70;;;-4.40;99.90;;;;;;5031885;28;20420;-59
2022/12/17 13:10:47;;;;;;;56.47;20.53;;;-4.30;99.90;;;;;;5031610;28;20852;-59
2022/12/17 13:13:33;;;;;;;50.63;20.77;;;-4.30;99.90;;;;;;5031741;28;20440;-59
2022/12/17 13:16:15;;;;;;;50.30;18.83;;;-4.30;99.90;;;;;;5031897;28;20501;-59
2022/12/17 13:18:41;;;;;;;47.80;19.47;;;-4.10;99.90;;;;;;5031516;28;20510;-59
2022/12/17 13:21:16;;;;;;;47.90;19.57;;;-4.10;99.90;;;;;;5031585;28;20527;-58
2022/12/17 13:23:42;;;;;;;43.63;16.23;;;-4.10;99.90;;;;;;5031935;28;20120;-59
2022/12/17 13:26:22;;;;;;;50.97;19.47;;;-4.20;99.90;;;;;;5031679;28;20432;-59
2022/12/17 13:29:09;;;;;;;47.63;17.87;;;-4.20;99.90;;;;;;5031484;28;20527;-59
2022/12/17 13:31:58;;;;;;;50.53;19.70;;;-4.30;99.90;;;;;;5031326;28;20471;-59
2022/12/17 13:34:56;;;;;;;46.25;18.55;;;-4.40;99.90;;;;;;5031535;28;20462;-59
2022/12/17 13:37:51;;;;;;;43.57;16.90;;;-4.50;99.90;;;;;;5046781;28;20761;-59
2022/12/17 13:40:25;;;;;;;51.90;19.13;;;-4.50;99.90;;;;;;5031389;28;20428;-59
2022/12/17 13:42:51;;;;;;;54.43;20.93;;;-4.50;99.90;;;;;;5031392;28;20427;-59
2022/12/17 13:45:22;;;;;;;52.63;19.47;;;-4.60;99.90;;;;;;5031254;28;20436;-59
2022/12/17 13:47:58;;;;;;;49.93;19.77;;;-4.50;99.90;;;;;;5031207;28;20044;-59
2022/12/17 13:50:28;;;;;;;59.13;21.23;;;-4.50;99.90;;;;;;5046270;28;20531;-60
2022/12/17 13:52:53;;;;;;;46.03;17.67;;;-4.50;99.90;;;;;;5031348;28;20741;-59
2022/12/17 13:55:24;;;;;;;57.77;21.50;;;-4.50;99.90;;;;;;5031164;28;20032;-59
2022/12/17 13:57:52;;;;;;;53.30;19.70;;;-4.40;99.90;;;;;;5031367;28;20030;-59
2022/12/17 14:00:19;;;;;;;47.77;19.73;;;-4.30;99.90;;;;;;5030888;28;20436;-59
2022/12/17 14:02:45;;;;;;;50.53;20.40;;;-4.20;99.90;;;;;;5030862;28;20436;-59
2022/12/17 14:05:22;;;;;;;54.77;20.30;;;-4.20;99.90;;;;;;5031047;28;20450;-58
2022/12/17 14:07:48;;;;;;;49.47;20.27;;;-4.20;99.90;;;;;;5030791;28;20041;-59
2022/12/17 14:10:17;;;;;;;49.83;20.50;;;-4.00;99.90;;;;;;5030656;28;20447;-59
2022/12/17 14:12:44;;;;;;;53.23;20.43;;;-4.00;99.90;;;;;;5030154;28;20037;-59
2022/12/17 14:15:23;;;;;;;48.80;20.27;;;-4.00;99.90;;;;;;5030760;28;20452;-59
2022/12/17 14:17:49;;;;;;;47.97;19.13;;;-4.00;99.90;;;;;;5030988;28;20455;-59
2022/12/17 14:20:21;;;;;;;51.33;20.20;;;-3.90;99.90;;;;;;5030663;28;20416;-59
2022/12/17 14:22:53;;;;;;;49.20;21.13;;;-4.00;99.90;;;;;;5030712;28;20470;-59
2022/12/17 14:25:25;;;;;;;54.17;21.70;;;-3.90;99.90;;;;;;5030788;28;20847;-59
2022/12/17 14:28:25;;;;;;;49.10;20.60;;;-3.90;99.90;;;;;;5030508;28;20416;-59
2022/12/17 14:31:01;;;;;;;50.83;21.17;;;-3.90;99.90;;;;;;5022385;28;20459;-59
2022/12/17 14:33:30;;;;;;;53.57;21.17;;;-3.90;99.90;;;;;;5059897;22;20041;-53
2022/12/17 14:35:59;;;;;;;42.42;17.45;;;-3.90;99.90;;;;;;5050637;28;20431;-54
2022/12/17 14:38:26;;;;;;;54.50;21.93;;;-3.90;99.90;;;;;;5050480;28;20025;-54
2022/12/17 14:40:52;;;;;;;55.03;20.90;;;-4.00;99.90;;;;;;5050330;28;20419;-54
2022/12/17 14:43:25;;;;;;;53.63;20.27;;;-4.00;99.90;;;;;;5050557;28;20791;-54
2022/12/17 14:48:59;;;;;;;59.07;23.17;;;-4.10;99.90;;;;;;5050151;28;20533;-53
2022/12/17 14:51:43;;;;;;;69.33;26.00;;;-4.10;99.90;;;;;;5050666;28;20799;-53
2022/12/17 14:54:21;;;;;;;50.77;21.13;;;-4.20;99.90;;;;;;5050483;28;20544;-54
2022/12/17 14:56:48;;;;;;;52.60;20.50;;;-4.20;99.90;;;;;;5050268;28;20440;-55
2022/12/17 14:59:32;;;;;;;53.83;22.20;;;-4.20;99.90;;;;;;5050248;28;20427;-53
2022/12/17 15:02:19;;;;;;;50.80;20.30;;;-4.20;99.90;;;;;;5049079;28;21006;-54
2022/12/17 15:04:45;;;;;;;49.97;20.03;;;-4.20;99.90;;;;;;5050548;28;20451;-52
2022/12/17 15:07:21;;;;;;;60.07;22.90;;;-4.30;99.90;;;;;;5050387;28;20424;-52
2022/12/17 15:09:47;;;;;;;46.07;19.67;;;-4.30;99.90;;;;;;5050453;28;20447;-51
2022/12/17 15:12:12;;;;;;;55.03;21.10;;;-4.30;99.90;;;;;;5050564;28;20447;-51
2022/12/17 15:14:38;;;;;;;44.80;20.23;;;-4.30;99.90;;;;;;5050380;28;20036;-54
2022/12/17 15:17:04;;;;;;;53.53;20.30;;;-4.30;99.90;;;;;;5050251;28;20482;-54
2022/12/17 15:19:30;;;;;;;49.57;20.30;;;-4.40;99.90;;;;;;5050150;28;20060;-52
2022/12/17 15:21:56;;;;;;;52.13;20.40;;;-4.40;99.90;;;;;;5050097;28;20999;-53
2022/12/17 15:24:21;;;;;;;47.17;20.50;;;-4.50;99.90;;;;;;5053502;28;20031;-53
2022/12/17 15:26:48;;;;;;;48.20;21.50;;;-4.50;99.90;;;;;;5053859;28;20115;-53
2022/12/17 15:29:14;;;;;;;48.53;19.90;;;-4.50;99.90;;;;;;5053957;28;20037;-54
2022/12/17 15:31:40;;;;;;;47.93;20.07;;;-4.50;99.90;;;;;;5053759;28;20443;-53
2022/12/17 15:34:06;;;;;;;51.33;21.33;;;-4.50;99.90;;;;;;5054050;28;20033;-53
2022/12/17 15:36:32;;;;;;;52.90;21.37;;;-4.50;99.90;;;;;;5053648;28;20061;-54
2022/12/17 15:38:58;;;;;;;48.27;21.03;;;-4.50;99.90;;;;;;5053919;28;20079;-54
2022/12/17 15:44:28;;;;;;;48.93;20.43;;;-4.50;99.90;;;;;;5011642;28;20460;-54
2022/12/17 15:46:53;;;;;;;49.33;21.40;;;-4.60;99.90;;;;;;5011490;28;20467;-55
2022/12/17 15:49:20;;;;;;;50.83;21.17;;;-4.60;99.90;;;;;;5030924;28;20048;-55
2022/12/17 15:51:45;;;;;;;50.23;21.73;;;-4.60;99.90;;;;;;5053849;28;20032;-53
2022/12/17 15:54:11;;;;;;;49.73;21.27;;;-4.60;99.90;;;;;;5053704;28;20985;-55
2022/12/17 15:56:37;;;;;;;55.90;21.60;;;-4.60;99.90;;;;;;5053363;28;20037;-56
2022/12/17 15:59:03;;;;;;;51.73;21.97;;;-4.60;99.90;;;;;;5053337;28;20058;-51
2022/12/17 16:01:29;;;;;;;53.77;22.80;;;-4.70;99.90;;;;;;5053805;28;20426;-52
2022/12/17 16:03:54;;;;;;;58.63;24.67;;;-4.70;99.90;;;;;;5053584;28;20502;-54
2022/12/17 16:06:20;;;;;;;54.83;23.80;;;-4.70;99.90;;;;;;5053330;28;20153;-52
2022/12/17 16:08:46;;;;;;;59.80;23.50;;;-4.70;99.90;;;;;;5053144;28;20039;-50
2022/12/17 16:11:13;;;;;;;61.27;24.13;;;-4.70;99.90;;;;;;5053365;28;20035;-51
2022/12/17 16:13:39;;;;;;;54.50;23.00;;;-4.70;99.90;;;;;;5053227;28;20154;-51
2022/12/17 16:16:05;;;;;;;58.33;24.47;;;-4.70;99.90;;;;;;5053178;28;20423;-52
2022/12/17 16:18:31;;;;;;;53.07;21.87;;;-4.70;99.90;;;;;;5052894;28;20427;-53
2022/12/17 16:21:02;;;;;;;60.17;24.17;;;-4.80;99.90;;;;;;5053227;28;20435;-52
2022/12/17 16:23:27;;;;;;;57.60;22.33;;;-4.90;99.90;;;;;;5053166;28;20463;-56
2022/12/17 16:25:58;;;;;;;57.20;23.20;;;-5.00;99.90;;;;;;5053182;28;20458;-52
2022/12/17 16:28:25;;;;;;;53.17;21.73;;;-5.20;99.90;;;;;;5051483;28;20029;-52
2022/12/17 16:31:09;;;;;;;56.17;21.53;;;-5.40;99.90;;;;;;5052520;28;20445;-51
2022/12/17 16:33:37;;;;;;;53.90;22.57;;;-5.50;99.90;;;;;;5052650;28;20451;-50
2022/12/17 16:36:05;;;;;;;56.63;21.70;;;-5.60;99.90;;;;;;5052448;28;20442;-53
2022/12/17 16:38:31;;;;;;;55.90;20.87;;;-5.60;99.90;;;;;;5052506;28;20431;-55
2022/12/17 16:40:59;;;;;;;51.80;20.33;;;-5.60;99.90;;;;;;5052641;28;20442;-54
2022/12/17 16:43:26;;;;;;;66.50;25.27;;;-5.70;99.90;;;;;;5052675;28;20029;-53
2022/12/17 16:45:53;;;;;;;59.00;23.10;;;-5.70;99.90;;;;;;5052659;28;20518;-52
2022/12/17 16:48:20;;;;;;;56.03;21.60;;;-5.80;99.90;;;;;;5051229;28;20839;-54
2022/12/17 16:50:48;;;;;;;55.87;21.63;;;-5.80;99.90;;;;;;5052295;28;20966;-53
2022/12/17 16:53:13;;;;;;;54.20;20.90;;;-5.80;99.90;;;;;;5052536;28;20489;-55
2022/12/17 16:55:44;;;;;;;59.30;23.00;;;-5.80;99.90;;;;;;5052297;28;20459;-52
2022/12/17 16:58:10;;;;;;;57.73;23.17;;;-5.90;99.90;;;;;;5052545;28;20047;-52
2022/12/17 17:00:36;;;;;;;56.73;23.47;;;-5.90;99.90;;;;;;5052356;28;20423;-55
2022/12/17 17:03:03;;;;;;;64.43;24.97;;;-5.90;99.90;;;;;;5052335;28;20788;-54
2022/12/17 17:05:34;;;;;;;57.07;23.07;;;-6.00;99.90;;;;;;5051000;28;20083;-55
2022/12/17 17:08:01;;;;;;;56.30;22.90;;;-6.00;99.90;;;;;;5052041;28;20434;-53
2022/12/17 17:10:27;;;;;;;56.23;23.67;;;-6.00;99.90;;;;;;5051871;28;20439;-53
2022/12/17 17:12:53;;;;;;;60.37;25.20;;;-6.00;99.90;;;;;;5052054;28;20439;-56
2022/12/17 17:15:19;;;;;;;61.13;22.83;;;-6.00;99.90;;;;;;5050752;28;20494;-52
2022/12/17 17:17:45;;;;;;;58.40;22.83;;;-6.00;99.90;;;;;;5051852;28;20986;-53
2022/12/17 17:20:11;;;;;;;53.47;21.90;;;-6.00;99.90;;;;;;5051743;28;20428;-57
2022/12/17 17:22:37;;;;;;;51.53;20.83;;;-6.00;99.90;;;;;;5051851;28;20025;-54
2022/12/17 17:25:03;;;;;;;52.87;22.07;;;-6.00;99.90;;;;;;5051869;28;20120;-53
2022/12/17 17:27:30;;;;;;;53.03;22.07;;;-6.00;99.90;;;;;;5051694;28;20107;-55
2022/12/17 17:29:57;;;;;;;57.13;23.80;;;-6.00;99.90;;;;;;5051575;28;20434;-52
2022/12/17 17:32:23;;;;;;;52.67;21.53;;;-6.00;99.90;;;;;;5051735;28;20714;-52
2022/12/17 17:34:49;;;;;;;58.47;22.00;;;-6.00;99.90;;;;;;5051623;28;20928;-53
2022/12/17 17:37:15;;;;;;;54.77;22.67;;;-6.00;99.90;;;;;;5051368;28;20597;-52
2022/12/17 17:39:41;;;;;;;55.70;23.00;;;-6.00;99.90;;;;;;5051550;28;20025;-54
2022/12/17 17:42:07;;;;;;;54.47;22.23;;;-5.90;99.90;;;;;;5051709;28;21148;-53
2022/12/17 17:44:34;;;;;;;53.07;20.67;;;-5.90;99.90;;;;;;5051619;28;20511;-51
2022/12/17 17:47:00;;;;;;;57.03;22.63;;;-5.90;99.90;;;;;;5050073;28;20140;-53
2022/12/17 17:49:25;;;;;;;52.20;21.80;;;-6.00;99.90;;;;;;5051304;28;20511;-55
2022/12/17 17:51:51;;;;;;;55.63;22.87;;;-6.00;99.90;;;;;;5051114;28;20459;-56
2022/12/17 17:54:17;;;;;;;54.83;22.10;;;-6.00;99.90;;;;;;5051375;28;20029;-51
2022/12/17 17:56:43;;;;;;;55.37;21.63;;;-6.00;99.90;;;;;;5050178;28;20044;-53
2022/12/17 17:59:20;;;;;;;59.57;23.87;;;-5.90;99.90;;;;;;5051332;28;20483;-54
2022/12/17 18:01:49;;;;;;;57.93;22.93;;;-6.00;99.90;;;;;;5051218;28;20052;-51
2022/12/17 18:04:18;;;;;;;60.72;23.08;;;-6.00;99.90;;;;;;5051275;28;20459;-52
2022/12/17 18:06:45;;;;;;;64.03;24.92;;;-6.00;99.90;;;;;;5051090;28;20556;-53
2022/12/17 18:09:12;;;;;;;58.43;24.80;;;-6.00;99.90;;;;;;5050935;28;20123;-55
2022/12/17 18:11:41;;;;;;;58.50;24.23;;;-6.00;99.90;;;;;;5051130;28;20431;-53
2022/12/17 18:14:10;;;;;;;65.97;24.77;;;-6.00;99.90;;;;;;5050881;28;21100;-51
2022/12/17 18:16:39;;;;;;;62.97;24.97;;;-6.00;99.90;;;;;;5050912;28;20851;-54
2022/12/17 18:19:14;;;;;;;58.07;23.67;;;-6.10;99.90;;;;;;5050638;28;20439;-54
2022/12/17 18:21:41;;;;;;;54.67;23.20;;;-6.10;99.90;;;;;;5050869;28;20434;-54
2022/12/17 18:24:13;;;;;;;61.97;23.83;;;-6.10;99.90;;;;;;5050993;28;20439;-53
2022/12/17 18:26:41;;;;;;;51.77;23.20;;;-6.10;99.90;;;;;;5050775;28;20439;-54
2022/12/17 18:29:09;;;;;;;57.00;23.80;;;-6.20;99.90;;;;;;5050738;28;20497;-54
2022/12/17 18:31:35;;;;;;;60.87;23.67;;;-6.20;99.90;;;;;;5049356;28;20447;-53
2022/12/17 18:34:02;;;;;;;56.10;23.47;;;-6.20;99.90;;;;;;5050628;28;20462;-54
2022/12/17 18:36:39;;;;;;;56.70;22.83;;;-6.20;99.90;;;;;;5050570;28;20430;-54
2022/12/17 18:39:10;;;;;;;58.37;22.97;;;-6.20;99.90;;;;;;5050617;28;20472;-56
2022/12/17 18:44:21;;;;;;;50.33;20.43;;;-6.30;99.90;;;;;;5050973;28;20765;-54
2022/12/17 18:46:47;;;;;;;48.53;20.77;;;-6.30;99.90;;;;;;5050615;28;20459;-55
2022/12/17 18:49:14;;;;;;;49.93;20.20;;;-6.30;99.90;;;;;;5050424;28;20524;-55
2022/12/17 18:51:42;;;;;;;50.07;18.97;;;-6.40;99.90;;;;;;5050544;28;20090;-54
2022/12/17 18:54:13;;;;;;;50.53;19.30;;;-6.50;99.90;;;;;;5050486;28;20554;-56
2022/12/17 18:56:39;;;;;;;50.83;19.50;;;-6.40;99.90;;;;;;5050404;28;20560;-56
2022/12/17 18:59:04;;;;;;;50.70;20.50;;;-6.40;99.90;;;;;;5053318;28;20423;-54
2022/12/17 19:01:34;;;;;;;53.37;21.23;;;-6.40;99.90;;;;;;5054533;28;20489;-53
2022/12/17 19:04:05;;;;;;;46.70;18.40;;;-6.50;99.90;;;;;;5054539;28;20441;-52
2022/12/17 19:06:32;;;;;;;48.13;19.80;;;-6.60;99.90;;;;;;5054283;28;20118;-53
2022/12/17 19:09:00;;;;;;;49.33;19.27;;;-6.60;99.90;;;;;;5036469;28;20447;-56
2022/12/17 19:11:26;;;;;;;51.20;20.83;;;-6.60;99.90;;;;;;5054744;28;20523;-55
2022/12/17 19:13:52;;;;;;;52.87;19.97;;;-6.60;99.90;;;;;;5054129;28;20459;-55
2022/12/17 19:16:24;;;;;;;46.10;18.80;;;-6.50;99.90;;;;;;5054198;28;20442;-56
2022/12/17 19:19:01;;;;;;;45.77;18.83;;;-6.50;99.90;;;;;;5053965;28;20439;-56
2022/12/17 19:21:28;;;;;;;45.80;19.20;;;-6.50;99.90;;;;;;5052929;28;20967;-56
2022/12/17 19:23:59;;;;;;;43.43;20.10;;;-6.50;99.90;;;;;;5054321;28;20437;-55
2022/12/17 19:26:26;;;;;;;48.53;20.27;;;-6.60;99.90;;;;;;5053966;28;20438;-52
2022/12/17 19:28:53;;;;;;;49.33;19.87;;;-6.60;99.90;;;;;;5054090;28;20811;-51
2022/12/17 19:31:21;;;;;;;54.27;21.10;;;-6.60;99.90;;;;;;5054033;28;20420;-53
2022/12/17 19:33:47;;;;;;;50.57;20.20;;;-6.50;99.90;;;;;;5053754;28;20467;-49
2022/12/17 19:36:16;;;;;;;48.97;20.87;;;-6.50;99.90;;;;;;5053819;28;20427;-54
2022/12/17 19:38:42;;;;;;;69.88;27.38;;;-6.50;99.90;;;;;;5053738;28;20539;-53
2022/12/17 19:41:16;;;;;;;54.27;21.93;;;-6.50;99.90;;;;;;5053922;28;20032;-53
2022/12/17 19:43:43;;;;;;;48.87;20.37;;;-6.40;99.90;;;;;;5053794;28;20434;-54
2022/12/17 19:46:16;;;;;;;54.20;21.63;;;-6.40;99.90;;;;;;5053699;28;20459;-53
2022/12/17 19:48:44;;;;;;;48.10;20.50;;;-6.40;99.90;;;;;;5053824;28;20442;-54
2022/12/17 19:51:12;;;;;;;52.10;19.90;;;-6.40;99.90;;;;;;5053801;28;20493;-53
2022/12/17 19:53:39;;;;;;;43.60;19.37;;;-6.50;99.90;;;;;;5053639;28;20843;-55
2022/12/17 19:56:31;;;;;;;48.40;19.43;;;-6.40;99.90;;;;;;5053496;28;20412;-54
2022/12/17 19:59:05;;;;;;;46.70;19.20;;;-6.50;99.90;;;;;;5051503;28;20609;-53
2022/12/17 20:01:39;;;;;;;46.33;17.47;;;-6.50;99.90;;;;;;5053243;28;20526;-55
2022/12/17 20:04:05;;;;;;;44.83;17.90;;;-6.50;99.90;;;;;;5053429;28;20423;-53
2022/12/17 20:06:33;;;;;;;43.53;18.07;;;-6.50;99.90;;;;;;5053135;28;20884;-55
2022/12/17 20:09:00;;;;;;;43.63;18.37;;;-6.40;99.90;;;;;;5052287;28;20083;-54
2022/12/17 20:11:32;;;;;;;44.33;18.47;;;-6.50;99.90;;;;;;5051246;28;20427;-56
2022/12/17 20:14:16;;;;;;;39.80;17.50;;;-6.40;99.90;;;;;;5053321;28;20634;-55
2022/12/17 20:16:46;;;;;;;39.97;17.80;;;-6.40;99.90;;;;;;5052880;28;20431;-54
2022/12/17 20:19:14;;;;;;;38.80;17.10;;;-6.30;99.90;;;;;;5052954;28;20430;-55
2022/12/17 20:21:40;;;;;;;46.23;18.63;;;-6.40;99.90;;;;;;5052915;28;20962;-53
2022/12/17 20:24:06;;;;;;;40.87;17.53;;;-6.40;99.90;;;;;;5052999;28;20534;-57
2022/12/17 20:26:32;;;;;;;44.37;18.37;;;-6.40;99.90;;;;;;5052994;28;20178;-55
2022/12/17 20:28:58;;;;;;;43.30;17.90;;;-6.40;99.90;;;;;;5052834;28;20530;-52
2022/12/17 20:31:25;;;;;;;38.27;17.77;;;-6.40;99.90;;;;;;5052862;28;20036;-56
2022/12/17 20:33:51;;;;;;;44.77;17.67;;;-6.40;99.90;;;;;;5065796;22;20492;-52
2022/12/17 20:36:19;;;;;;;44.37;18.13;;;-6.40;99.90;;;;;;5052747;28;20989;-51
2022/12/17 20:38:45;;;;;;;39.53;18.03;;;-6.40;99.90;;;;;;5052538;28;20069;-50
2022/12/17 20:41:15;;;;;;;41.90;17.80;;;-6.50;99.90;;;;;;5052744;28;20474;-50
2022/12/17 20:43:41;;;;;;;40.97;17.10;;;-6.40;99.90;;;;;;5052575;28;20649;-47
2022/12/17 20:46:11;;;;;;;39.53;17.60;;;-6.40;99.90;;;;;;5052646;28;20538;-48
2022/12/17 20:48:38;;;;;;;40.13;18.30;;;-6.40;99.90;;;;;;5052409;28;20436;-51
2022/12/17 20:51:08;;;;;;;41.23;17.53;;;-6.40;99.90;;;;;;5052372;28;20037;-48
2022/12/17 20:53:34;;;;;;;42.20;17.40;;;-6.40;99.90;;;;;;5052676;28;20439;-50
2022/12/17 20:56:03;;;;;;;40.60;17.53;;;-6.40;99.90;;;;;;5052482;28;20423;-49
2022/12/17 20:58:29;;;;;;;41.77;17.07;;;-6.40;99.90;;;;;;5052188;28;20412;-52
2022/12/17 21:01:05;;;;;;;41.40;17.67;;;-6.30;99.90;;;;;;5051051;28;20437;-51
2022/12/17 21:03:31;;;;;;;36.80;16.73;;;-6.30;99.90;;;;;;5052352;28;20039;-50
2022/12/17 21:06:07;;;;;;;37.50;14.50;;;-6.30;99.90;;;;;;5052123;28;20777;-51
2022/12/17 21:08:33;;;;;;;34.70;15.93;;;-6.30;99.90;;;;;;5051835;28;20443;-47
2022/12/17 21:10:58;;;;;;;38.50;15.77;;;-6.20;99.90;;;;;;5052141;28;20437;-47
2022/12/17 21:13:30;;;;;;;41.13;15.93;;;-6.10;99.90;;;;;;5051961;28;20071;-48
2022/12/17 21:16:01;;;;;;;45.40;21.63;;;-6.10;99.90;;;;;;5052011;28;20401;-51
2022/12/17 21:18:28;;;;;;;48.57;21.13;;;-6.10;99.90;;;;;;5051517;28;20446;-52
2022/12/17 21:20:59;;;;;;;44.43;17.87;;;-6.10;99.90;;;;;;5051343;28;20424;-51
2022/12/17 21:23:26;;;;;;;39.00;17.47;;;-6.10;99.90;;;;;;5051731;28;20442;-47
2022/12/17 21:26:04;;;;;;;39.60;15.80;;;-6.20;99.90;;;;;;5051602;28;20986;-49
2022/12/17 21:28:31;;;;;;;35.17;14.77;;;-6.20;99.90;;;;;;5051361;28;20462;-53
2022/12/17 21:30:56;;;;;;;35.30;14.97;;;-6.20;99.90;;;;;;5051609;28;20431;-53
2022/12/17 21:33:22;;;;;;;34.20;13.77;;;-6.10;99.90;;;;;;5051460;28;20465;-52
2022/12/17 21:35:48;;;;;;;30.07;14.13;;;-6.10;99.90;;;;;;5051665;28;20136;-51
2022/12/17 21:38:15;;;;;;;34.17;15.57;;;-6.00;99.90;;;;;;5051452;28;20648;-52
2022/12/17 21:40:41;;;;;;;32.80;14.20;;;-5.90;99.90;;;;;;5051285;28;20445;-49
2022/12/17 21:43:07;;;;;;;32.60;15.67;;;-6.00;99.90;;;;;;5051245;28;20424;-50
2022/12/17 21:45:38;;;;;;;34.47;15.60;;;-5.90;99.90;;;;;;5051324;28;20423;-54
2022/12/17 21:48:06;;;;;;;32.47;13.80;;;-5.90;99.90;;;;;;5051170;28;20442;-50
2022/12/17 21:50:32;;;;;;;32.77;14.40;;;-5.90;99.90;;;;;;5051245;28;20427;-52
2022/12/17 21:52:58;;;;;;;33.87;13.97;;;-6.00;99.90;;;;;;5051318;28;20447;-48
2022/12/17 21:55:24;;;;;;;32.27;12.77;;;-5.90;99.90;;;;;;5051420;28;20451;-53
2022/12/17 21:57:51;;;;;;;33.47;14.40;;;-5.90;99.90;;;;;;5051201;28;20043;-53
2022/12/17 22:00:17;;;;;;;28.53;12.50;;;-5.80;99.90;;;;;;5049873;28;20430;-49
2022/12/17 22:02:43;;;;;;;30.17;12.33;;;-5.70;99.90;;;;;;5051160;28;20431;-51
2022/12/17 22:05:08;;;;;;;27.83;12.17;;;-5.70;99.90;;;;;;5051400;28;20033;-53
2022/12/17 22:07:34;;;;;;;32.93;13.27;;;-5.60;99.90;;;;;;5051106;28;20477;-52
2022/12/17 22:10:00;;;;;;;29.60;12.33;;;-5.60;99.90;;;;;;5050964;28;20032;-49
2022/12/17 22:15:10;;;;;;;28.10;12.30;;;-5.40;99.90;;;;;;5051147;28;20828;-51
2022/12/17 22:17:36;;;;;;;30.20;13.60;;;-5.40;99.90;;;;;;5050862;28;20423;-53
2022/12/17 22:20:04;;;;;;;28.77;12.63;;;-5.30;99.90;;;;;;5050847;28;20021;-51
2022/12/17 22:22:30;;;;;;;29.03;12.43;;;-5.30;99.90;;;;;;5050989;28;20415;-53
2022/12/17 22:24:55;;;;;;;32.67;12.57;;;-5.20;99.90;;;;;;5050832;28;20454;-52
2022/12/17 22:27:22;;;;;;;27.87;12.37;;;-5.10;99.90;;;;;;5050742;28;20078;-51
2022/12/17 22:35:16;;;;;;;23.57;10.53;;;-5.10;99.90;;;;;;5051203;28;20549;-52
2022/12/17 22:37:42;;;;;;;22.33;10.63;;;-5.10;99.90;;;;;;5050541;28;20447;-51
2022/12/17 22:40:08;;;;;;;28.10;11.83;;;-5.00;99.90;;;;;;5050704;28;20478;-52
2022/12/17 22:45:18;;;;;;;23.57;10.80;;;-5.00;99.90;;;;;;5050747;28;20441;-51
2022/12/17 22:47:44;;;;;;;25.13;11.47;;;-5.10;99.90;;;;;;5050470;28;20424;-52
2022/12/17 22:50:10;;;;;;;26.63;11.23;;;-5.10;99.90;;;;;;5050489;28;20060;-52
2022/12/17 22:52:36;;;;;;;25.23;11.17;;;-5.20;99.90;;;;;;5050861;28;20451;-51
2022/12/17 22:55:02;;;;;;;28.37;12.07;;;-5.10;99.90;;;;;;5050711;28;20459;-52
2022/12/17 22:57:28;;;;;;;27.47;12.20;;;-5.20;99.90;;;;;;5050566;28;20402;-51
2022/12/17 22:59:53;;;;;;;29.50;13.33;;;-5.20;99.90;;;;;;5050488;28;20423;-51
2022/12/17 23:02:19;;;;;;;26.23;11.97;;;-5.30;99.90;;;;;;5050389;28;20028;-53
2022/12/17 23:04:45;;;;;;;26.57;12.97;;;-5.30;99.90;;;;;;5050537;28;20045;-53
2022/12/17 23:07:10;;;;;;;30.87;12.57;;;-5.40;99.90;;;;;;5050599;28;20033;-50
2022/12/17 23:09:36;;;;;;;29.67;13.57;;;-5.30;99.90;;;;;;5050483;28;20036;-52
2022/12/17 23:12:49;;;;;;;30.47;14.00;;;-5.40;99.90;;;;;;5050526;28;20103;-52
2022/12/17 23:14:48;;;;;;;31.57;13.00;;;-5.40;99.90;;;;;;5050274;28;20029;-53
2022/12/17 23:17:13;;;;;;;28.20;13.87;;;-5.50;99.90;;;;;;5049930;28;20485;-52
2022/12/17 23:19:39;;;;;;;33.07;13.90;;;-5.60;99.90;;;;;;5050198;28;20401;-52
2022/12/17 23:22:06;;;;;;;29.97;14.07;;;-5.60;99.90;;;;;;5050259;28;20029;-52
2022/12/17 23:24:32;;;;;;;29.43;13.33;;;-5.60;99.90;;;;;;5050064;28;20442;-51
2022/12/17 23:26:58;;;;;;;26.67;13.20;;;-5.60;99.90;;;;;;5049981;28;20033;-51
2022/12/17 23:29:23;;;;;;;33.23;14.00;;;-5.70;99.90;;;;;;5049952;28;20047;-52
2022/12/17 23:31:50;;;;;;;33.97;12.93;;;-5.70;99.90;;;;;;5050024;28;20043;-53
2022/12/17 23:34:15;;;;;;;29.40;12.47;;;-5.70;99.90;;;;;;5049877;28;20025;-53
2022/12/17 23:36:41;;;;;;;27.07;12.50;;;-5.70;99.90;;;;;;5050057;28;20530;-53
2022/12/17 23:39:07;;;;;;;30.70;13.00;;;-5.80;99.90;;;;;;5050043;28;20052;-53
2022/12/17 23:41:33;;;;;;;32.17;12.77;;;-5.90;99.90;;;;;;5049949;28;20091;-53
2022/12/17 23:43:59;;;;;;;28.97;12.57;;;-5.90;99.90;;;;;;5050824;28;20072;-54
2022/12/17 23:46:27;;;;;;;32.77;12.33;;;-6.00;99.90;;;;;;5053319;28;20435;-52
2022/12/17 23:48:53;;;;;;;26.53;11.23;;;-6.00;99.90;;;;;;5053415;28;20462;-50
2022/12/17 23:51:20;;;;;;;25.63;12.20;;;-6.10;99.90;;;;;;5053635;28;20426;-54
2022/12/17 23:53:46;;;;;;;28.00;12.10;;;-6.20;99.90;;;;;;5053874;28;20789;-52
2022/12/17 23:56:15;;;;;;;27.67;11.63;;;-6.10;99.90;;;;;;5053478;28;20544;-52
2022/12/17 23:58:42;;;;;;;19.98;9.10;;;-6.20;99.90;;;;;;5053093;28;20031;-52
